createdAt,value
2023-03-12T00:00:41.070Z,0.78
2023-03-12T00:05:44.364Z,0.80
2023-03-12T00:10:46.310Z,0.78
2023-03-12T00:15:48.175Z,0.76
2023-03-12T00:20:54.481Z,0.74
2023-03-12T00:26:03.967Z,0.71
2023-03-12T00:31:21.156Z,0.71
2023-03-12T00:36:26.855Z,0.69
2023-03-12T00:41:29.535Z,0.69
2023-03-12T00:46:31.457Z,0.69
2023-03-12T00:51:34.115Z,0.69
2023-03-12T00:56:35.909Z,0.68
2023-03-12T01:01:37.863Z,0.68
2023-03-12T01:06:40.704Z,0.65
2023-03-12T01:11:42.665Z,0.61
2023-03-12T01:16:44.588Z,0.61
2023-03-12T01:21:48.079Z,0.59
2023-03-12T01:26:50.085Z,0.56
2023-03-12T01:31:52.395Z,0.53
2023-03-12T01:36:55.536Z,0.50
2023-03-12T01:41:57.388Z,0.50
2023-03-12T01:46:59.371Z,0.48
2023-03-12T01:52:13.215Z,0.45
2023-03-12T01:57:31.340Z,0.44
2023-03-12T02:02:36.107Z,0.44
2023-03-12T02:07:38.458Z,0.44
2023-03-12T02:12:40.406Z,0.40
2023-03-12T02:17:42.473Z,0.38
2023-03-12T02:22:51.534Z,0.38
2023-03-12T02:27:54.401Z,0.35
2023-03-12T02:32:56.773Z,0.36
2023-03-12T02:37:59.023Z,0.33
2023-03-12T02:43:03.394Z,0.31
2023-03-12T02:48:09.447Z,0.28
2023-03-12T02:53:13.731Z,0.29
2023-03-12T02:58:15.806Z,0.28
2023-03-12T03:03:18.106Z,0.26
2023-03-12T03:08:20.293Z,0.22
2023-03-12T03:13:22.930Z,0.22
2023-03-12T03:18:25.269Z,0.24
2023-03-12T03:23:28.416Z,0.23
2023-03-12T03:28:30.895Z,0.20
2023-03-12T03:33:34.600Z,0.17
2023-03-12T03:38:37.793Z,0.15
2023-03-12T03:43:40.792Z,0.13
2023-03-12T03:48:43.740Z,0.14
2023-03-12T03:53:47.332Z,0.11
2023-03-12T03:58:49.374Z,0.12
2023-03-12T04:03:53.792Z,0.10
2023-03-12T04:08:57.518Z,0.11
2023-03-12T04:14:00.797Z,0.11
2023-03-12T04:19:06.204Z,0.09
2023-03-12T04:24:26.058Z,0.09
2023-03-12T04:29:28.170Z,0.10
2023-03-12T04:34:31.394Z,0.12
2023-03-12T04:39:35.131Z,0.12
2023-03-12T04:44:37.819Z,0.12
2023-03-12T04:49:40.328Z,0.14
2023-03-12T04:54:42.360Z,0.13
2023-03-12T04:59:44.609Z,0.13
2023-03-12T05:04:46.960Z,0.13
2023-03-12T05:09:48.900Z,0.13
2023-03-12T05:14:51.322Z,0.11
2023-03-12T05:19:54.382Z,0.11
2023-03-12T05:24:56.477Z,0.10
2023-03-12T05:29:58.825Z,0.10
2023-03-12T05:35:01.276Z,0.10
2023-03-12T05:40:04.401Z,0.12
2023-03-12T05:45:07.011Z,0.15
2023-03-12T05:50:11.662Z,0.18
2023-03-12T05:55:13.829Z,0.21
2023-03-12T06:00:17.916Z,0.23
2023-03-12T06:05:32.288Z,0.25
2023-03-12T06:10:34.565Z,0.28
2023-03-12T06:15:37.125Z,0.31
2023-03-12T06:20:43.211Z,0.36
2023-03-12T06:25:45.945Z,0.38
2023-03-12T06:30:48.771Z,0.42
2023-03-12T06:35:54.526Z,0.47
2023-03-12T06:41:01.909Z,0.55
2023-03-12T06:46:05.396Z,0.67
2023-03-12T06:51:11.568Z,0.77
2023-03-12T06:56:14.018Z,0.84
2023-03-12T07:01:15.990Z,0.90
2023-03-12T07:06:21.266Z,0.98
2023-03-12T07:11:23.562Z,1.05
2023-03-12T07:16:25.344Z,1.08
2023-03-12T07:21:27.407Z,1.18
2023-03-12T07:26:31.706Z,1.25
2023-03-12T07:31:33.687Z,1.29
2023-03-12T07:36:35.716Z,1.37
2023-03-12T07:41:39.194Z,1.51
2023-03-12T07:46:41.146Z,1.66
2023-03-12T07:51:43.292Z,1.79
2023-03-12T07:56:45.599Z,1.97
2023-03-12T08:01:48.073Z,2.10
2023-03-12T08:06:50.289Z,2.21
2023-03-12T08:11:52.285Z,2.30
2023-03-12T08:16:55.274Z,2.33
2023-03-12T08:21:58.168Z,2.45
2023-03-12T08:26:59.950Z,2.56
2023-03-12T08:32:05.400Z,2.64
2023-03-12T08:37:07.619Z,2.68
2023-03-12T08:42:09.416Z,2.78
2023-03-12T08:47:11.321Z,2.87
2023-03-12T08:52:13.147Z,2.91
2023-03-12T08:57:15.795Z,2.99
2023-03-12T09:02:18.744Z,3.04
2023-03-12T09:07:22.268Z,3.15
2023-03-12T09:12:25.162Z,3.28
2023-03-12T09:17:29.202Z,3.39
2023-03-12T09:22:33.177Z,3.57
2023-03-12T09:27:46.187Z,3.70
2023-03-12T09:32:50.167Z,3.83
2023-03-12T09:37:52.005Z,3.86
2023-03-12T09:42:58.310Z,3.84
2023-03-12T09:48:03.571Z,3.83
2023-03-12T09:53:44.552Z,3.86
2023-03-12T09:58:48.553Z,3.94
2023-03-12T10:04:19.588Z,4.07
2023-03-12T10:09:33.998Z,4.18
2023-03-12T10:15:21.118Z,4.32
2023-03-12T10:21:15.525Z,4.43
2023-03-12T10:26:36.319Z,4.55
2023-03-12T10:31:50.106Z,4.58
2023-03-12T10:36:52.824Z,4.65
2023-03-12T10:41:56.463Z,4.65
2023-03-12T10:47:35.623Z,4.72
2023-03-12T10:52:37.800Z,4.90
2023-03-12T10:57:42.448Z,4.92
2023-03-12T11:02:48.526Z,4.95
2023-03-12T11:07:51.412Z,5.02
2023-03-12T11:13:06.009Z,5.14
2023-03-12T11:18:25.519Z,5.15
2023-03-12T11:23:30.672Z,5.14
2023-03-12T11:28:42.985Z,5.25
2023-03-12T11:33:44.912Z,5.25
2023-03-12T11:38:46.766Z,5.23
2023-03-12T11:43:57.643Z,5.29
2023-03-12T11:49:22.632Z,5.36
2023-03-12T11:54:48.739Z,5.42
2023-03-12T11:59:55.648Z,5.44
2023-03-12T12:05:07.305Z,5.43
2023-03-12T12:10:09.138Z,5.46
2023-03-12T12:15:38.473Z,5.57
2023-03-12T12:21:06.267Z,5.74
2023-03-12T12:26:12.717Z,5.80
2023-03-12T12:31:50.735Z,5.88
2023-03-12T12:37:30.732Z,5.87
2023-03-12T12:42:36.832Z,5.90
2023-03-12T12:47:46.741Z,5.89
2023-03-12T12:52:58.785Z,5.82
2023-03-12T12:58:19.976Z,5.80
2023-03-12T13:03:24.877Z,5.79
2023-03-12T13:08:56.780Z,5.82
2023-03-12T13:14:02.926Z,5.82
2023-03-12T13:19:28.021Z,5.82
2023-03-12T13:24:35.659Z,5.87
2023-03-12T13:29:41.516Z,5.94
2023-03-12T13:34:46.729Z,5.90
2023-03-12T13:39:48.725Z,5.86
2023-03-12T13:44:52.547Z,5.85
2023-03-12T13:50:00.357Z,5.85
2023-03-12T13:55:14.199Z,5.88
2023-03-12T14:00:29.277Z,5.84
2023-03-12T14:05:34.779Z,5.85
2023-03-12T14:10:47.715Z,5.79
2023-03-12T14:16:05.718Z,5.76
2023-03-12T14:21:10.699Z,5.67
2023-03-12T14:26:20.557Z,5.54
2023-03-12T14:31:27.088Z,5.47
2023-03-12T14:37:01.524Z,5.38
2023-03-12T14:42:07.277Z,5.24
2023-03-12T14:47:11.724Z,5.14
2023-03-12T14:52:22.955Z,5.08
2023-03-12T14:57:24.992Z,5.04
2023-03-12T15:02:30.213Z,5.02
2023-03-12T15:07:37.450Z,5.03
2023-03-12T15:12:39.422Z,5.07
2023-03-12T15:17:41.380Z,5.01
2023-03-12T15:22:43.784Z,5.01
2023-03-12T15:27:45.690Z,5.03
2023-03-12T15:33:09.398Z,5.04
2023-03-12T15:38:17.279Z,5.04
2023-03-12T15:43:21.873Z,5.10
2023-03-12T15:48:29.364Z,5.20
2023-03-12T15:53:34.754Z,5.26
2023-03-12T15:58:41.954Z,5.26
2023-03-12T16:03:45.719Z,5.25
2023-03-12T16:08:51.599Z,5.20
2023-03-12T16:14:04.718Z,5.11
2023-03-12T16:19:15.761Z,5.07
2023-03-12T16:24:17.763Z,5.07
2023-03-12T16:29:21.762Z,5.11
2023-03-12T16:34:24.341Z,5.12
2023-03-12T16:39:30.521Z,5.14
2023-03-12T16:44:35.106Z,5.15
2023-03-12T16:49:37.117Z,5.18
2023-03-12T16:54:39.477Z,5.24
2023-03-12T16:59:41.430Z,5.27
2023-03-12T17:04:43.905Z,5.30
2023-03-12T17:09:45.644Z,5.32
2023-03-12T17:14:48.758Z,5.34
2023-03-12T17:19:52.222Z,5.36
2023-03-12T17:24:54.551Z,5.36
2023-03-12T17:29:56.428Z,5.36
2023-03-12T17:34:59.990Z,5.35
2023-03-12T17:40:07.769Z,5.36
2023-03-12T17:45:12.806Z,5.38
2023-03-12T17:50:15.622Z,5.39
2023-03-12T17:55:17.666Z,5.43
2023-03-12T18:00:22.059Z,5.45
2023-03-12T18:05:25.074Z,5.48
2023-03-12T18:10:33.118Z,5.53
2023-03-12T18:15:34.972Z,5.56
2023-03-12T18:20:39.564Z,5.60
2023-03-12T18:25:42.200Z,5.65
2023-03-12T18:30:48.187Z,5.70
2023-03-12T18:35:54.231Z,5.74
2023-03-12T18:41:07.515Z,5.79
2023-03-12T18:46:09.498Z,5.82
2023-03-12T18:51:14.381Z,5.85
2023-03-12T18:56:16.451Z,5.89
2023-03-12T19:01:18.536Z,5.91
2023-03-12T19:06:20.719Z,5.95
2023-03-12T19:11:23.822Z,5.98
2023-03-12T19:16:25.749Z,6.03
2023-03-12T19:21:27.647Z,6.09
2023-03-12T19:26:29.817Z,6.16
2023-03-12T19:31:33.162Z,6.23
2023-03-12T19:36:37.220Z,6.27
2023-03-12T19:41:40.944Z,6.31
2023-03-12T19:46:43.397Z,6.34
2023-03-12T19:51:48.564Z,6.37
2023-03-12T19:56:50.659Z,6.37
2023-03-12T20:01:56.054Z,6.38
2023-03-12T20:06:58.015Z,6.39
2023-03-12T20:12:01.789Z,6.41
2023-03-12T20:17:03.609Z,6.44
2023-03-12T20:22:06.502Z,6.45
2023-03-12T20:27:08.491Z,6.47
2023-03-12T20:32:10.576Z,6.50
2023-03-12T20:37:12.682Z,6.55
2023-03-12T20:42:14.483Z,6.59
2023-03-12T20:47:16.352Z,6.61
2023-03-12T20:52:18.723Z,6.65
2023-03-12T20:57:20.632Z,6.70
2023-03-12T21:02:23.650Z,6.73
2023-03-12T21:07:26.625Z,6.76
2023-03-12T21:12:28.558Z,6.79
2023-03-12T21:17:33.906Z,6.81
2023-03-12T21:22:36.506Z,6.86
2023-03-12T21:27:49.852Z,6.89
2023-03-12T21:32:53.112Z,6.94
2023-03-12T21:37:56.395Z,6.97
2023-03-12T21:43:00.843Z,6.99
2023-03-12T21:48:02.912Z,7.01
2023-03-12T21:53:09.165Z,7.02
2023-03-12T21:58:19.655Z,7.04
2023-03-12T22:03:21.421Z,7.04
2023-03-12T22:08:23.186Z,7.04
2023-03-12T22:13:25.168Z,7.07
2023-03-12T22:18:28.052Z,7.07
2023-03-12T22:23:30.474Z,7.08
2023-03-12T22:28:33.238Z,7.10
2023-03-12T22:33:37.074Z,7.12
2023-03-12T22:38:40.166Z,7.13
2023-03-12T22:43:50.721Z,7.15
2023-03-12T22:48:58.530Z,7.17
2023-03-12T22:54:00.836Z,7.15
2023-03-12T22:59:02.786Z,7.17
2023-03-12T23:04:06.459Z,7.21
2023-03-12T23:09:08.490Z,7.24
2023-03-12T23:14:10.433Z,7.27
2023-03-12T23:19:14.752Z,7.30
2023-03-12T23:24:16.693Z,7.32
2023-03-12T23:29:18.534Z,7.35
2023-03-12T23:34:20.604Z,7.35
2023-03-12T23:39:22.782Z,7.37
2023-03-12T23:44:25.103Z,7.41
2023-03-12T23:49:27.064Z,7.41
2023-03-12T23:54:28.970Z,7.43
2023-03-12T23:59:30.869Z,7.44
